Porterfield, Wisconsin
Current Conditions -  °F | °C
As of 9:55 AM on Thursday 27 Nov 2014 (Local Time) from KMNM Reporting Station
Clear Clear  
Wind Chill: -2°   Ceiling: Unl
Heat Index: 14°   Visibility: 10mi
Dew Point:   Wind: 16mph
Humidity: 62%   Direction: 340°NNW
Pressure: 30.33"   Gusts: 21mph
Location:  45.15°N, 87.79°W
Report Text: KMNM 271555Z AUTO 34014G18KT 10SM CLR M10/M16 A3033 RMK AO1
Loading
Personal Weather Stations






























Interactive Weather Map New forecast layout! Learn more

10-Day Weather Forecast

Advertisements
Track Severe Weather on mobile